createdAt,value
2019-01-03T00:02:21.445Z,99290.92
2019-01-03T00:05:07.004Z,99296.12
2019-01-03T00:07:43.252Z,99297.67
2019-01-03T00:10:16.210Z,99302.28
2019-01-03T00:13:04.798Z,99295.80
2019-01-03T00:15:51.136Z,99302.50
2019-01-03T00:18:24.144Z,99304.81
2019-01-03T00:20:54.396Z,99306.13
2019-01-03T00:23:27.804Z,99312.06
2019-01-03T00:25:58.174Z,99314.84
2019-01-03T00:28:37.454Z,99309.42
2019-01-03T00:31:07.777Z,99308.58
2019-01-03T00:33:43.850Z,99305.23
2019-01-03T00:36:30.577Z,99311.48
2019-01-03T00:39:09.753Z,99316.41
2019-01-03T00:41:43.209Z,99308.38
2019-01-03T00:44:16.319Z,99312.31
2019-01-03T00:46:46.751Z,99311.00
2019-01-03T00:49:26.002Z,99317.42
2019-01-03T00:52:11.256Z,99308.92
2019-01-03T00:54:57.860Z,99315.01
2019-01-03T00:57:40.700Z,99309.37
2019-01-03T01:00:13.830Z,99310.16
2019-01-03T01:03:00.925Z,99303.95
2019-01-03T01:05:47.453Z,99310.41
2019-01-03T01:08:20.475Z,99299.02
2019-01-03T01:10:53.460Z,99296.62
2019-01-03T01:13:42.660Z,99294.57
2019-01-03T01:16:29.260Z,99299.80
2019-01-03T01:19:11.633Z,99298.15
2019-01-03T01:21:54.072Z,99294.45
2019-01-03T01:24:40.564Z,99291.36
2019-01-03T01:27:13.892Z,99292.49
2019-01-03T01:29:53.458Z,99290.19
2019-01-03T01:32:29.618Z,99289.14
2019-01-03T01:35:12.416Z,99296.39
2019-01-03T01:37:57.631Z,99290.34
2019-01-03T01:40:36.723Z,99278.91
2019-01-03T01:43:13.079Z,99285.05
2019-01-03T01:45:58.928Z,99282.67
2019-01-03T01:48:34.814Z,99280.09
2019-01-03T01:51:21.523Z,99274.05
2019-01-03T01:54:08.190Z,99277.64
2019-01-03T01:56:41.752Z,99273.28
2019-01-03T01:59:12.005Z,99273.45
2019-01-03T02:01:42.372Z,99267.42
2019-01-03T02:04:18.677Z,99270.53
2019-01-03T02:06:49.089Z,99267.36
2019-01-03T02:09:22.296Z,99270.70
2019-01-03T02:11:55.588Z,99268.41
2019-01-03T02:14:25.828Z,99263.53
2019-01-03T02:17:12.450Z,99264.30
2019-01-03T02:19:58.987Z,99264.09
2019-01-03T02:22:35.267Z,99261.33
2019-01-03T02:25:11.317Z,99261.10
2019-01-03T02:27:44.535Z,99263.13
2019-01-03T02:30:31.226Z,99269.53
2019-01-03T02:33:04.614Z,99264.39
2019-01-03T02:35:37.901Z,99262.59
2019-01-03T02:38:17.058Z,99261.34
2019-01-03T02:41:03.372Z,99259.21
2019-01-03T02:43:33.754Z,99260.72
2019-01-03T02:46:15.927Z,99256.35
2019-01-03T02:48:46.206Z,99258.98
2019-01-03T02:51:32.796Z,99259.25
2019-01-03T02:54:09.078Z,99258.45
2019-01-03T02:56:51.329Z,99258.85
2019-01-03T02:59:25.013Z,99260.89
2019-01-03T03:01:55.262Z,99258.59
2019-01-03T03:04:40.771Z,99256.31
2019-01-03T03:07:20.079Z,99261.59
2019-01-03T03:09:56.392Z,99263.69
2019-01-03T03:12:38.778Z,99264.44
2019-01-03T03:15:18.239Z,99268.95
2019-01-03T03:18:03.773Z,99266.03
2019-01-03T03:20:34.054Z,99265.27
2019-01-03T03:23:20.890Z,99270.26
2019-01-03T03:25:53.992Z,99266.67
2019-01-03T03:28:40.601Z,99272.73
2019-01-03T03:31:14.332Z,99272.27
2019-01-03T03:33:47.423Z,99271.73
2019-01-03T03:36:17.688Z,99268.59
2019-01-03T03:39:04.221Z,99275.79
2019-01-03T03:41:34.471Z,99272.18
2019-01-03T03:44:10.873Z,99273.49
2019-01-03T03:46:56.179Z,99281.27
2019-01-03T03:49:32.681Z,99285.46
2019-01-03T03:52:21.083Z,99279.44
2019-01-03T03:54:54.365Z,99280.69
2019-01-03T03:57:40.954Z,99297.05
2019-01-03T04:00:29.496Z,99304.95
2019-01-03T04:03:08.557Z,99303.34
2019-01-03T04:05:39.058Z,99304.31
2019-01-03T04:08:25.445Z,99310.66
2019-01-03T04:11:04.963Z,99309.18
2019-01-03T04:13:35.213Z,99304.77
2019-01-03T04:16:05.467Z,99311.25
2019-01-03T04:18:41.933Z,99315.84
2019-01-03T04:21:18.216Z,99312.84
2019-01-03T04:24:03.725Z,99323.88
2019-01-03T04:26:36.669Z,99327.54
2019-01-03T04:29:19.244Z,99340.05
2019-01-03T04:31:52.410Z,99343.11
2019-01-03T04:34:25.744Z,99349.27
2019-01-03T04:36:55.992Z,99343.94
2019-01-03T04:39:26.243Z,99349.33
2019-01-03T04:42:03.897Z,99347.42
2019-01-03T04:44:40.091Z,99351.72
2019-01-03T04:47:19.596Z,99351.50
2019-01-03T04:49:55.864Z,99362.56
2019-01-03T04:52:43.858Z,99369.20
2019-01-03T04:55:16.892Z,99368.74
2019-01-03T04:57:53.368Z,99364.50
2019-01-03T05:00:41.631Z,99368.53
2019-01-03T05:03:20.950Z,99372.45
2019-01-03T05:06:06.134Z,99368.97
2019-01-03T05:08:36.979Z,99372.12
2019-01-03T05:11:23.599Z,99376.85
2019-01-03T05:13:56.625Z,99373.23
2019-01-03T05:16:38.810Z,99369.06
2019-01-03T05:19:18.295Z,99372.98
2019-01-03T05:22:04.819Z,99376.13
2019-01-03T05:24:47.714Z,99371.16
2019-01-03T05:27:26.982Z,99385.48
2019-01-03T05:29:58.690Z,99381.19
2019-01-03T05:32:48.224Z,99378.05
2019-01-03T05:35:35.499Z,99378.56
2019-01-03T05:38:14.586Z,99380.50
2019-01-03T05:40:44.905Z,99382.55
2019-01-03T05:43:17.923Z,99375.14
2019-01-03T05:46:04.829Z,99372.89
2019-01-03T05:48:53.375Z,99373.03
2019-01-03T05:51:40.237Z,99375.45
2019-01-03T05:54:25.551Z,99379.95
2019-01-03T05:56:58.936Z,99378.58
2019-01-03T05:59:32.197Z,99378.73
2019-01-03T06:02:08.348Z,99387.77
2019-01-03T06:04:47.342Z,99396.19
2019-01-03T06:07:17.764Z,99399.58
2019-01-03T06:09:56.828Z,99399.86
2019-01-03T06:12:29.929Z,99401.02
2019-01-03T06:15:00.221Z,99402.81
2019-01-03T06:17:39.793Z,99405.22
2019-01-03T06:20:10.248Z,99407.05
2019-01-03T06:22:56.835Z,99415.72
2019-01-03T06:25:45.097Z,99423.42
2019-01-03T06:28:15.595Z,99419.22
2019-01-03T06:30:51.987Z,99414.63
2019-01-03T06:33:31.564Z,99412.80
2019-01-03T06:36:07.958Z,99417.23
2019-01-03T06:38:44.215Z,99416.55
2019-01-03T06:41:14.482Z,99415.16
2019-01-03T06:43:51.040Z,99420.09
2019-01-03T06:46:37.586Z,99429.06
2019-01-03T06:49:24.146Z,99428.05
2019-01-03T06:51:54.401Z,99424.03
2019-01-03T06:54:27.401Z,99422.74
2019-01-03T06:57:16.202Z,99421.37
2019-01-03T06:59:46.453Z,99428.36
2019-01-03T07:02:19.780Z,99431.81
2019-01-03T07:05:05.219Z,99431.95
2019-01-03T07:07:51.532Z,99434.64
2019-01-03T07:10:23.272Z,99440.38
2019-01-03T07:13:09.690Z,99446.78
2019-01-03T07:15:56.661Z,99461.59
2019-01-03T07:18:43.020Z,99466.44
2019-01-03T07:21:27.311Z,99475.28
2019-01-03T07:24:12.307Z,99484.33
2019-01-03T07:26:42.793Z,99491.27
2019-01-03T07:29:28.074Z,99491.81
2019-01-03T07:32:13.562Z,99490.84
2019-01-03T07:34:52.617Z,99499.95
2019-01-03T07:37:26.098Z,99496.34
2019-01-03T07:39:56.349Z,99495.63
2019-01-03T07:42:43.140Z,99499.23
2019-01-03T07:45:22.651Z,99501.86
2019-01-03T07:47:53.043Z,99507.81
2019-01-03T07:50:26.028Z,99506.29
2019-01-03T07:53:05.247Z,99504.45
2019-01-03T07:55:35.498Z,99505.55
2019-01-03T07:58:18.051Z,99503.98
2019-01-03T08:01:00.517Z,99501.88
2019-01-03T08:03:30.974Z,99502.62
2019-01-03T08:06:06.966Z,99504.46
2019-01-03T08:08:53.648Z,99505.52
2019-01-03T08:11:40.099Z,99505.25
2019-01-03T08:14:28.771Z,99507.02
2019-01-03T08:17:15.307Z,99497.16
2019-01-03T08:19:45.631Z,99501.88
2019-01-03T08:22:15.880Z,99501.91
2019-01-03T08:24:55.392Z,99500.36
2019-01-03T08:27:40.668Z,99501.66
2019-01-03T08:30:16.632Z,99500.66
2019-01-03T08:32:52.883Z,99506.14
2019-01-03T08:35:39.510Z,99506.13
2019-01-03T08:38:19.043Z,99506.11
2019-01-03T08:41:08.014Z,99508.20
2019-01-03T08:43:54.395Z,99506.67
2019-01-03T08:46:32.189Z,99509.01
2019-01-03T08:49:14.712Z,99512.09
2019-01-03T08:51:47.997Z,99501.48
2019-01-03T08:54:30.555Z,99515.73
2019-01-03T08:57:07.075Z,99506.67
2019-01-03T08:59:52.361Z,99508.99
2019-01-03T09:02:32.306Z,99503.02
2019-01-03T09:05:09.584Z,99505.11
2019-01-03T09:07:55.111Z,99495.24
2019-01-03T09:10:34.653Z,99502.76
2019-01-03T09:13:11.150Z,99500.19
2019-01-03T09:15:41.399Z,99492.13
2019-01-03T09:18:28.314Z,99496.52
2019-01-03T09:20:58.506Z,99486.91
2019-01-03T09:23:31.710Z,99481.21
2019-01-03T09:26:02.197Z,99485.90
2019-01-03T09:28:48.800Z,99479.39
2019-01-03T09:31:22.114Z,99477.34
2019-01-03T09:33:52.379Z,99478.38
2019-01-03T09:36:31.610Z,99471.64
2019-01-03T09:39:01.860Z,99473.23
2019-01-03T09:41:41.013Z,99465.69
2019-01-03T09:44:14.228Z,99467.77
2019-01-03T09:46:42.911Z,99465.45
2019-01-03T09:49:11.679Z,99461.55
2019-01-03T09:51:40.356Z,99459.48
2019-01-03T09:54:09.147Z,99458.69
2019-01-03T09:56:38.018Z,99446.27
2019-01-03T09:59:06.720Z,99460.25
2019-01-03T10:01:35.409Z,99448.59
2019-01-03T10:04:04.270Z,99451.70
2019-01-03T10:06:32.980Z,99439.27
2019-01-03T10:09:01.653Z,99448.84
2019-01-03T10:11:30.743Z,99452.73
2019-01-03T10:13:59.460Z,99454.56
2019-01-03T10:16:28.157Z,99441.86
2019-01-03T10:18:57.200Z,99432.52
2019-01-03T10:21:25.875Z,99425.29
2019-01-03T10:23:54.559Z,99422.43
2019-01-03T10:26:23.287Z,99413.36
2019-01-03T10:28:51.969Z,99416.98
2019-01-03T10:31:20.643Z,99420.59
2019-01-03T10:33:49.621Z,99415.67
2019-01-03T10:36:24.215Z,99418.00
2019-01-03T10:38:49.284Z,99414.90
2019-01-03T10:41:18.433Z,99413.60
2019-01-03T10:43:47.114Z,99411.52
2019-01-03T10:46:15.804Z,99407.34
2019-01-03T10:48:44.548Z,99407.84
2019-01-03T10:51:13.240Z,99402.94
2019-01-03T10:53:41.930Z,99406.56
2019-01-03T10:56:10.668Z,99402.67
2019-01-03T10:58:39.352Z,99402.39
2019-01-03T11:01:08.019Z,99403.45
2019-01-03T11:03:36.741Z,99390.20
2019-01-03T11:06:05.428Z,99379.59
2019-01-03T11:08:34.189Z,99377.26
2019-01-03T11:11:02.944Z,99373.13
2019-01-03T11:13:31.609Z,99378.83
2019-01-03T11:16:00.312Z,99371.04
2019-01-03T11:18:29.131Z,99374.15
2019-01-03T11:20:57.812Z,99369.72
2019-01-03T11:23:26.497Z,99366.86
2019-01-03T11:25:55.263Z,99362.44
2019-01-03T11:28:23.937Z,99361.65
2019-01-03T11:30:52.621Z,99359.54
2019-01-03T11:33:21.647Z,99355.89
2019-01-03T11:35:50.332Z,99358.46
2019-01-03T11:38:19.019Z,99356.16
2019-01-03T11:40:48.188Z,99346.55
2019-01-03T11:43:16.858Z,99345.47
2019-01-03T11:45:45.531Z,99342.61
2019-01-03T11:48:14.346Z,99335.08
2019-01-03T11:50:43.040Z,99333.77
2019-01-03T11:53:11.739Z,99335.09
2019-01-03T11:55:40.617Z,99335.15
2019-01-03T11:58:09.272Z,99333.59
2019-01-03T12:00:37.952Z,99332.82
2019-01-03T12:03:07.732Z,99336.51
2019-01-03T12:05:36.429Z,99330.22
2019-01-03T12:08:05.121Z,99326.52
2019-01-03T12:10:34.325Z,99326.56
2019-01-03T12:13:03.021Z,99325.06
2019-01-03T12:15:31.679Z,99328.97
2019-01-03T12:18:00.466Z,99318.58
2019-01-03T12:20:29.152Z,99314.39
2019-01-03T12:22:57.840Z,99319.36
2019-01-03T12:25:26.892Z,99325.06
2019-01-03T12:27:55.563Z,99314.15
2019-01-03T12:30:24.239Z,99318.08
2019-01-03T12:32:54.424Z,99309.83
2019-01-03T12:35:23.130Z,99310.86
2019-01-03T12:37:51.809Z,99311.62
2019-01-03T12:40:20.655Z,99319.20
2019-01-03T12:42:49.344Z,99317.38
2019-01-03T12:45:18.028Z,99314.79
2019-01-03T12:47:46.748Z,99325.69
2019-01-03T12:50:15.431Z,99332.95
2019-01-03T12:52:44.121Z,99336.61
2019-01-03T12:55:13.979Z,99320.80
2019-01-03T12:57:42.658Z,99331.22
2019-01-03T13:00:12.729Z,99336.40
2019-01-03T13:02:41.642Z,99343.91
2019-01-03T13:05:11.022Z,99335.86
2019-01-03T13:07:39.704Z,99336.14
2019-01-03T13:10:09.378Z,99343.63
2019-01-03T13:12:38.139Z,99343.39
2019-01-03T13:15:07.335Z,99340.02
2019-01-03T13:17:36.211Z,99338.20
2019-01-03T13:20:07.169Z,99333.02
2019-01-03T13:22:36.671Z,99329.14
2019-01-03T13:25:06.383Z,99324.19
2019-01-03T13:27:36.163Z,99326.05
2019-01-03T13:30:07.735Z,99332.01
2019-01-03T13:32:36.430Z,99343.67
2019-01-03T13:35:05.600Z,99345.98
2019-01-03T13:37:36.278Z,99337.97
2019-01-03T13:40:06.346Z,99333.03
2019-01-03T13:42:35.034Z,99332.55
2019-01-03T13:45:04.094Z,99340.30
2019-01-03T13:47:32.773Z,99349.88
2019-01-03T13:50:02.245Z,99351.95
2019-01-03T13:52:31.817Z,99348.58
2019-01-03T13:55:00.511Z,99355.33
2019-01-03T13:57:29.215Z,99353.25
2019-01-03T13:59:58.428Z,99350.92
2019-01-03T14:02:27.113Z,99357.40
2019-01-03T14:04:55.801Z,99355.56
2019-01-03T14:07:24.582Z,99350.66
2019-01-03T14:09:53.270Z,99348.33
2019-01-03T14:12:22.647Z,99342.38
2019-01-03T14:14:51.479Z,99337.19
2019-01-03T14:17:20.167Z,99329.69
2019-01-03T14:19:48.845Z,99330.98
2019-01-03T14:22:17.680Z,99329.15
2019-01-03T14:24:46.365Z,99330.20
2019-01-03T14:27:15.080Z,99328.13
2019-01-03T14:29:43.935Z,99329.67
2019-01-03T14:32:12.626Z,99327.11
2019-01-03T14:34:41.315Z,99338.25
2019-01-03T14:37:10.153Z,99341.59
2019-01-03T14:39:38.828Z,99347.28
2019-01-03T14:42:09.025Z,99351.69
2019-01-03T14:44:38.758Z,99353.23
2019-01-03T14:47:07.430Z,99347.76
2019-01-03T14:49:36.118Z,99345.95
2019-01-03T14:52:06.013Z,99336.36
2019-01-03T14:54:34.709Z,99341.82
2019-01-03T14:57:03.385Z,99337.42
2019-01-03T14:59:33.825Z,99337.94
2019-01-03T15:02:02.606Z,99338.19
2019-01-03T15:04:33.950Z,99340.23
2019-01-03T15:07:02.981Z,99336.38
2019-01-03T15:09:31.664Z,99329.61
2019-01-03T15:12:02.424Z,99328.03
2019-01-03T15:14:32.583Z,99326.47
2019-01-03T15:17:01.412Z,99318.74
2019-01-03T15:19:30.387Z,99319.23
2019-01-03T15:21:59.050Z,99308.63
2019-01-03T15:24:27.729Z,99311.69
2019-01-03T15:26:56.385Z,99307.80
2019-01-03T15:29:26.095Z,99306.80
2019-01-03T15:31:54.987Z,99305.70
2019-01-03T15:34:24.090Z,99302.84
2019-01-03T15:36:52.791Z,99310.88
2019-01-03T15:39:21.494Z,99303.12
2019-01-03T15:41:50.510Z,99303.86
2019-01-03T15:44:19.191Z,99306.98
2019-01-03T15:46:47.885Z,99307.48
2019-01-03T15:49:16.801Z,99306.47
2019-01-03T15:51:45.498Z,99310.59
2019-01-03T15:54:14.186Z,99316.69
2019-01-03T15:56:43.055Z,99318.06
2019-01-03T15:59:11.732Z,99316.78
2019-01-03T16:01:40.422Z,99312.81
2019-01-03T16:04:09.166Z,99304.83
2019-01-03T16:06:37.950Z,99303.22
2019-01-03T16:09:06.929Z,99303.69
2019-01-03T16:11:35.775Z,99301.08
2019-01-03T16:14:04.456Z,99310.33
2019-01-03T16:16:34.084Z,99310.34
2019-01-03T16:19:02.885Z,99309.58
2019-01-03T16:21:31.570Z,99313.00
2019-01-03T16:24:00.244Z,99316.85
2019-01-03T16:26:29.080Z,99321.91
2019-01-03T16:28:57.762Z,99330.69
2019-01-03T16:31:26.440Z,99333.80
2019-01-03T16:33:55.267Z,99342.30
2019-01-03T16:36:24.045Z,99342.09
2019-01-03T16:38:52.738Z,99339.59
2019-01-03T16:41:21.554Z,99335.49
2019-01-03T16:43:50.226Z,99346.24
2019-01-03T16:46:18.908Z,99341.79
2019-01-03T16:48:47.723Z,99345.28
2019-01-03T16:51:16.418Z,99344.20
2019-01-03T16:53:45.408Z,99352.23
2019-01-03T16:56:14.236Z,99356.80
2019-01-03T16:58:42.923Z,99355.07
2019-01-03T17:01:12.438Z,99351.83
2019-01-03T17:03:43.155Z,99350.33
2019-01-03T17:06:11.776Z,99347.95
2019-01-03T17:08:40.460Z,99349.96
2019-01-03T17:11:09.450Z,99347.89
2019-01-03T17:13:42.054Z,99348.34
2019-01-03T17:16:10.435Z,99344.91
2019-01-03T17:18:42.241Z,99341.82
2019-01-03T17:21:14.892Z,99338.09
2019-01-03T17:23:43.891Z,99338.63
2019-01-03T17:26:12.560Z,99343.71
2019-01-03T17:28:42.256Z,99345.09
2019-01-03T17:31:11.279Z,99341.44
2019-01-03T17:33:43.147Z,99347.59
2019-01-03T17:36:15.621Z,99342.75
2019-01-03T17:38:45.234Z,99342.20
2019-01-03T17:41:13.920Z,99341.36
2019-01-03T17:43:51.337Z,99337.61
2019-01-03T17:46:21.616Z,99334.98
2019-01-03T17:48:52.077Z,99343.41
2019-01-03T17:51:20.924Z,99335.23
2019-01-03T17:53:49.603Z,99334.00
2019-01-03T17:56:22.151Z,99343.19
2019-01-03T17:58:51.074Z,99333.36
2019-01-03T18:01:19.751Z,99329.74
2019-01-03T18:03:48.443Z,99333.32
2019-01-03T18:06:17.310Z,99326.70
2019-01-03T18:08:46.007Z,99327.20
2019-01-03T18:11:14.697Z,99323.63
2019-01-03T18:13:43.627Z,99325.93
2019-01-03T18:16:12.403Z,99322.52
2019-01-03T18:18:41.104Z,99320.00
2019-01-03T18:21:10.124Z,99322.00
2019-01-03T18:23:39.737Z,99318.59
2019-01-03T18:26:08.439Z,99322.02
2019-01-03T18:28:37.171Z,99323.89
2019-01-03T18:31:05.854Z,99328.77
2019-01-03T18:33:38.486Z,99329.00
2019-01-03T18:36:07.319Z,99335.16
2019-01-03T18:38:36.016Z,99335.18
2019-01-03T18:41:04.702Z,99339.88
2019-01-03T18:43:33.445Z,99344.13
2019-01-03T18:46:02.923Z,99338.09
2019-01-03T18:48:31.632Z,99336.02
2019-01-03T18:51:00.382Z,99342.03
2019-01-03T18:53:29.066Z,99343.06
2019-01-03T18:55:57.780Z,99343.52
2019-01-03T18:58:26.621Z,99340.95
2019-01-03T19:00:55.328Z,99341.73
2019-01-03T19:03:24.017Z,99348.64
2019-01-03T19:05:52.886Z,99338.80
2019-01-03T19:08:21.562Z,99343.50
2019-01-03T19:10:50.250Z,99347.89
2019-01-03T19:13:20.444Z,99347.44
2019-01-03T19:15:49.132Z,99344.38
2019-01-03T19:18:17.815Z,99355.32
2019-01-03T19:20:46.736Z,99343.66
2019-01-03T19:23:15.415Z,99345.14
2019-01-03T19:25:44.131Z,99353.02
2019-01-03T19:28:12.885Z,99359.42
2019-01-03T19:30:43.020Z,99359.18
2019-01-03T19:33:11.702Z,99366.97
2019-01-03T19:35:40.538Z,99369.10
2019-01-03T19:38:09.217Z,99365.97
2019-01-03T19:40:37.927Z,99368.82
2019-01-03T19:43:06.888Z,99375.55
2019-01-03T19:45:35.567Z,99379.95
2019-01-03T19:48:04.242Z,99379.55
2019-01-03T19:50:33.080Z,99384.46
2019-01-03T19:53:01.770Z,99384.85
2019-01-03T19:55:30.452Z,99381.33
2019-01-03T19:57:59.167Z,99376.90
2019-01-03T20:00:27.864Z,99384.95
2019-01-03T20:02:56.583Z,99384.55
2019-01-03T20:05:25.625Z,99386.00
2019-01-03T20:07:54.327Z,99385.18
2019-01-03T20:10:23.011Z,99388.89
2019-01-03T20:12:51.957Z,99391.27
2019-01-03T20:15:20.638Z,99391.45
2019-01-03T20:17:49.623Z,99396.81
2019-01-03T20:20:21.488Z,99395.92
2019-01-03T20:22:50.179Z,99391.23
2019-01-03T20:25:18.869Z,99396.05
2019-01-03T20:27:47.855Z,99395.85
2019-01-03T20:30:16.554Z,99388.63
2019-01-03T20:32:45.254Z,99391.95
2019-01-03T20:35:14.057Z,99387.00
2019-01-03T20:37:42.774Z,99391.25
2019-01-03T20:40:11.439Z,99391.17
2019-01-03T20:42:40.435Z,99393.48
2019-01-03T20:45:11.588Z,99398.61
2019-01-03T20:47:40.378Z,99402.78
2019-01-03T20:50:13.227Z,99400.23
2019-01-03T20:52:41.916Z,99400.69
2019-01-03T20:55:10.593Z,99406.85
2019-01-03T20:57:39.417Z,99406.83
2019-01-03T21:00:11.067Z,99409.72
2019-01-03T21:02:39.773Z,99407.16
2019-01-03T21:05:08.927Z,99405.95
2019-01-03T21:07:37.651Z,99410.83
2019-01-03T21:10:09.539Z,99410.66
2019-01-03T21:12:38.509Z,99413.69
2019-01-03T21:15:10.204Z,99413.19
2019-01-03T21:17:39.021Z,99412.91
2019-01-03T21:20:13.065Z,99419.66
2019-01-03T21:22:41.937Z,99418.24
2019-01-03T21:25:11.661Z,99416.05
2019-01-03T21:27:40.638Z,99414.70
2019-01-03T21:30:12.723Z,99421.48
2019-01-03T21:32:41.404Z,99416.35
2019-01-03T21:35:10.187Z,99414.78
2019-01-03T21:37:39.020Z,99413.22
2019-01-03T21:40:10.210Z,99413.27
2019-01-03T21:42:38.881Z,99420.38
2019-01-03T21:45:10.620Z,99419.87
2019-01-03T21:47:39.302Z,99421.89
2019-01-03T21:50:11.415Z,99417.40
2019-01-03T21:52:40.278Z,99421.58
2019-01-03T21:55:08.932Z,99432.91
2019-01-03T21:57:37.610Z,99423.06
2019-01-03T22:00:11.522Z,99429.61
2019-01-03T22:02:40.223Z,99433.89
2019-01-03T22:05:09.011Z,99431.05
2019-01-03T22:07:37.798Z,99440.11
2019-01-03T22:10:09.044Z,99442.29
2019-01-03T22:12:37.732Z,99443.11
2019-01-03T22:15:09.174Z,99437.00
2019-01-03T22:17:37.855Z,99441.38
2019-01-03T22:20:08.441Z,99446.06
2019-01-03T22:22:37.168Z,99447.64
2019-01-03T22:25:07.744Z,99447.61
2019-01-03T22:27:36.500Z,99450.00
2019-01-03T22:30:08.141Z,99453.05
2019-01-03T22:32:36.818Z,99453.05
2019-01-03T22:35:06.504Z,99457.14
2019-01-03T22:37:35.616Z,99457.95
2019-01-03T22:40:04.865Z,99465.79
2019-01-03T22:42:33.545Z,99462.30
2019-01-03T22:45:02.579Z,99472.11
2019-01-03T22:47:31.251Z,99475.22
2019-01-03T22:49:59.922Z,99476.58
2019-01-03T22:52:28.655Z,99480.58
2019-01-03T22:54:57.338Z,99482.37
2019-01-03T22:57:26.023Z,99481.95
2019-01-03T22:59:54.743Z,99482.92
2019-01-03T23:02:23.417Z,99486.83
2019-01-03T23:04:52.105Z,99485.29
2019-01-03T23:07:20.938Z,99485.83
2019-01-03T23:09:49.620Z,99496.96
2019-01-03T23:12:18.295Z,99498.69
2019-01-03T23:14:47.330Z,99497.23
2019-01-03T23:17:16.010Z,99501.70
2019-01-03T23:19:44.696Z,99497.80
2019-01-03T23:22:13.537Z,99502.63
2019-01-03T23:24:42.222Z,99501.34
2019-01-03T23:27:10.903Z,99511.30
2019-01-03T23:29:40.781Z,99508.97
2019-01-03T23:32:09.458Z,99509.43
2019-01-03T23:34:38.127Z,99513.44
2019-01-03T23:37:07.037Z,99510.56
2019-01-03T23:39:35.706Z,99520.31
2019-01-03T23:42:04.382Z,99519.81
2019-01-03T23:44:33.202Z,99523.53
2019-01-03T23:47:02.311Z,99524.37
2019-01-03T23:49:31.080Z,99525.65
2019-01-03T23:51:59.910Z,99520.67
2019-01-03T23:54:28.577Z,99520.50
2019-01-03T23:56:57.248Z,99527.84
2019-01-03T23:59:25.992Z,99524.86
